createdAt,value
2018-06-02T00:00:44.624Z,19.50
2018-06-02T00:03:11.777Z,19.60
2018-06-02T00:05:38.122Z,19.60
2018-06-02T00:08:04.612Z,19.60
2018-06-02T00:10:31.728Z,19.40
2018-06-02T00:12:58.095Z,19.40
2018-06-02T00:15:24.406Z,19.40
2018-06-02T00:17:55.931Z,19.30
2018-06-02T00:20:22.262Z,19.30
2018-06-02T00:22:48.641Z,19.30
2018-06-02T00:25:14.959Z,19.30
2018-06-02T00:27:41.565Z,19.20
2018-06-02T00:30:07.901Z,19.20
2018-06-02T00:32:34.225Z,19.20
2018-06-02T00:35:00.569Z,19.20
2018-06-02T00:37:26.994Z,19.20
2018-06-02T00:39:53.309Z,19.10
2018-06-02T00:42:19.642Z,19.10
2018-06-02T00:44:46.751Z,19.00
2018-06-02T00:47:13.346Z,19.00
2018-06-02T00:49:39.800Z,19.00
2018-06-02T00:52:06.116Z,19.00
2018-06-02T00:54:44.517Z,18.90
2018-06-02T00:57:11.109Z,18.90
2018-06-02T00:59:37.481Z,18.80
2018-06-02T01:02:04.553Z,18.80
2018-06-02T01:04:30.878Z,18.80
2018-06-02T01:06:57.390Z,18.80
2018-06-02T01:09:23.714Z,18.90
2018-06-02T01:11:50.153Z,18.80
2018-06-02T01:14:17.298Z,18.80
2018-06-02T01:16:44.432Z,18.80
2018-06-02T01:19:10.814Z,18.80
2018-06-02T01:21:37.146Z,18.70
2018-06-02T01:24:03.547Z,18.70
2018-06-02T01:26:29.861Z,18.70
2018-06-02T01:28:56.958Z,18.70
2018-06-02T01:31:23.310Z,18.70
2018-06-02T01:33:49.652Z,18.60
2018-06-02T01:36:16.007Z,18.60
2018-06-02T01:38:43.122Z,18.50
2018-06-02T01:41:09.485Z,18.60
2018-06-02T01:43:35.801Z,18.50
2018-06-02T01:46:02.120Z,18.50
2018-06-02T01:48:28.473Z,18.40
2018-06-02T01:50:55.578Z,18.40
2018-06-02T01:53:21.946Z,18.40
2018-06-02T01:55:48.403Z,18.30
2018-06-02T01:58:15.501Z,18.30
2018-06-02T02:00:42.715Z,18.30
2018-06-02T02:03:09.091Z,18.30
2018-06-02T02:05:35.413Z,18.20
2018-06-02T02:08:01.758Z,18.20
2018-06-02T02:10:28.155Z,18.20
2018-06-02T02:12:54.493Z,18.30
2018-06-02T02:15:20.829Z,18.20
2018-06-02T02:17:47.233Z,18.10
2018-06-02T02:20:13.605Z,18.10
2018-06-02T02:22:39.973Z,18.00
2018-06-02T02:25:06.302Z,18.00
2018-06-02T02:27:32.738Z,17.90
2018-06-02T02:29:59.851Z,17.90
2018-06-02T02:32:26.195Z,17.90
2018-06-02T02:34:54.054Z,17.80
2018-06-02T02:37:20.469Z,17.80
2018-06-02T02:39:47.301Z,17.80
2018-06-02T02:42:13.722Z,17.80
2018-06-02T02:44:40.045Z,17.70
2018-06-02T02:47:06.585Z,17.70
2018-06-02T02:49:32.918Z,17.60
2018-06-02T02:51:59.286Z,17.60
2018-06-02T02:54:25.679Z,17.60
2018-06-02T02:56:52.171Z,17.60
2018-06-02T02:59:19.278Z,17.50
2018-06-02T03:01:45.632Z,17.50
2018-06-02T03:04:12.013Z,17.50
2018-06-02T03:06:38.605Z,17.50
2018-06-02T03:09:04.942Z,17.50
2018-06-02T03:11:31.283Z,17.50
2018-06-02T03:13:57.675Z,17.40
2018-06-02T03:16:24.015Z,17.40
2018-06-02T03:18:50.334Z,17.40
2018-06-02T03:21:16.701Z,17.40
2018-06-02T03:23:43.217Z,17.40
2018-06-02T03:26:09.549Z,17.40
2018-06-02T03:28:35.882Z,17.40
2018-06-02T03:31:02.241Z,17.40
2018-06-02T03:33:28.596Z,17.30
2018-06-02T03:35:55.665Z,17.30
2018-06-02T03:38:21.999Z,17.40
2018-06-02T03:40:48.311Z,17.30
2018-06-02T03:43:15.649Z,17.20
2018-06-02T03:45:42.002Z,17.20
2018-06-02T03:48:08.310Z,17.20
2018-06-02T03:50:35.381Z,17.20
2018-06-02T03:53:01.703Z,17.10
2018-06-02T03:55:28.785Z,17.20
2018-06-02T03:57:55.165Z,17.20
2018-06-02T04:00:22.237Z,17.20
2018-06-02T04:02:49.329Z,17.20
2018-06-02T04:05:15.664Z,17.20
2018-06-02T04:07:42.363Z,17.10
2018-06-02T04:10:08.689Z,17.20
2018-06-02T04:12:35.021Z,17.20
2018-06-02T04:15:01.359Z,17.20
2018-06-02T04:17:27.737Z,17.20
2018-06-02T04:19:54.062Z,17.20
2018-06-02T04:22:20.425Z,17.20
2018-06-02T04:24:47.595Z,17.20
2018-06-02T04:27:14.821Z,17.30
2018-06-02T04:29:41.917Z,17.40
2018-06-02T04:32:08.281Z,17.40
2018-06-02T04:34:34.594Z,17.40
2018-06-02T04:37:00.995Z,17.40
2018-06-02T04:39:27.345Z,17.40
2018-06-02T04:41:53.671Z,17.40
2018-06-02T04:44:19.990Z,17.50
2018-06-02T04:46:46.530Z,17.60
2018-06-02T04:49:13.047Z,17.60
2018-06-02T04:51:39.358Z,17.60
2018-06-02T04:54:05.770Z,17.80
2018-06-02T04:56:32.081Z,17.90
2018-06-02T04:58:58.411Z,17.90
2018-06-02T05:01:24.750Z,18.00
2018-06-02T05:03:51.088Z,18.00
2018-06-02T05:06:17.421Z,18.10
2018-06-02T05:08:43.829Z,18.10
2018-06-02T05:11:10.177Z,18.20
2018-06-02T05:13:36.534Z,18.20
2018-06-02T05:16:02.853Z,18.30
2018-06-02T05:18:29.217Z,18.30
2018-06-02T05:20:56.282Z,18.50
2018-06-02T05:23:22.605Z,18.40
2018-06-02T05:25:49.737Z,18.80
2018-06-02T05:28:16.822Z,18.80
2018-06-02T05:30:43.261Z,18.80
2018-06-02T05:33:09.596Z,18.80
2018-06-02T05:35:35.936Z,19.00
2018-06-02T05:38:02.513Z,19.00
2018-06-02T05:40:28.922Z,19.10
2018-06-02T05:42:55.244Z,19.20
2018-06-02T05:45:21.613Z,19.30
2018-06-02T05:47:48.973Z,19.60
2018-06-02T05:50:16.117Z,19.80
2018-06-02T05:52:42.457Z,19.70
2018-06-02T05:55:08.785Z,20.00
2018-06-02T05:57:35.997Z,20.40
2018-06-02T06:00:02.417Z,20.30
2018-06-02T06:02:28.738Z,20.60
2018-06-02T06:04:55.066Z,20.80
2018-06-02T06:07:21.541Z,21.20
2018-06-02T06:09:47.868Z,21.40
2018-06-02T06:12:14.473Z,21.60
2018-06-02T06:14:40.781Z,21.90
2018-06-02T06:17:07.353Z,22.10
2018-06-02T06:19:33.692Z,22.40
2018-06-02T06:22:00.006Z,22.70
2018-06-02T06:24:26.338Z,23.00
2018-06-02T06:26:52.933Z,23.20
2018-06-02T06:29:19.284Z,23.40
2018-06-02T06:31:45.785Z,23.80
2018-06-02T06:34:12.105Z,24.00
2018-06-02T06:36:38.427Z,24.30
2018-06-02T06:39:04.858Z,24.50
2018-06-02T06:41:31.185Z,24.40
2018-06-02T06:43:57.509Z,24.50
2018-06-02T06:46:23.906Z,24.40
2018-06-02T06:48:50.685Z,24.40
2018-06-02T06:51:17.137Z,24.40
2018-06-02T06:53:43.465Z,24.70
2018-06-02T06:56:09.776Z,24.90
2018-06-02T06:58:36.107Z,25.10
2018-06-02T07:01:02.480Z,25.40
2018-06-02T07:03:29.533Z,26.10
2018-06-02T07:05:56.646Z,26.50
2018-06-02T07:08:23.022Z,26.40
2018-06-02T07:10:50.116Z,27.10
2018-06-02T07:13:16.625Z,27.10
2018-06-02T07:15:42.958Z,27.50
2018-06-02T07:18:09.809Z,27.80
2018-06-02T07:20:36.210Z,28.10
2018-06-02T07:23:02.541Z,28.40
2018-06-02T07:25:29.664Z,28.70
2018-06-02T07:27:56.351Z,28.70
2018-06-02T07:30:22.662Z,29.00
2018-06-02T07:32:49.005Z,29.10
2018-06-02T07:35:16.249Z,29.30
2018-06-02T07:37:42.735Z,29.30
2018-06-02T07:40:09.067Z,29.40
2018-06-02T07:42:35.409Z,29.50
2018-06-02T07:45:01.771Z,29.70
2018-06-02T07:47:28.269Z,29.80
2018-06-02T07:49:54.649Z,30.00
2018-06-02T07:52:20.953Z,30.20
2018-06-02T07:54:47.318Z,30.10
2018-06-02T07:57:13.852Z,30.20
2018-06-02T07:59:40.166Z,30.20
2018-06-02T08:02:06.537Z,30.20
2018-06-02T08:04:32.945Z,30.30
2018-06-02T08:06:59.333Z,30.40
2018-06-02T08:09:25.879Z,30.30
2018-06-02T08:11:52.991Z,30.50
2018-06-02T08:14:19.444Z,30.40
2018-06-02T08:16:45.987Z,30.30
2018-06-02T08:19:12.414Z,30.20
2018-06-02T08:21:38.729Z,30.20
2018-06-02T08:24:05.161Z,30.10
2018-06-02T08:26:32.356Z,30.30
2018-06-02T08:28:58.676Z,30.30
2018-06-02T08:31:25.789Z,30.50
2018-06-02T08:33:52.108Z,30.50
2018-06-02T08:36:19.209Z,30.80
2018-06-02T08:38:45.672Z,30.80
2018-06-02T08:41:12.017Z,31.00
2018-06-02T08:43:38.334Z,31.00
2018-06-02T08:46:04.673Z,31.10
2018-06-02T08:48:31.022Z,31.30
2018-06-02T08:50:57.347Z,31.40
2018-06-02T08:53:23.681Z,31.60
2018-06-02T08:55:50.039Z,31.70
2018-06-02T08:58:16.861Z,31.70
2018-06-02T09:00:43.173Z,31.90
2018-06-02T09:03:09.521Z,32.00
2018-06-02T09:05:35.849Z,32.10
2018-06-02T09:08:02.424Z,32.10
2018-06-02T09:10:29.495Z,32.10
2018-06-02T09:12:55.837Z,32.10
2018-06-02T09:21:19.094Z,32.40
2018-06-02T09:23:45.630Z,32.30
2018-06-02T09:26:11.998Z,32.40
2018-06-02T09:28:38.537Z,32.50
2018-06-02T09:31:04.861Z,32.70
2018-06-02T09:33:31.198Z,32.80
2018-06-02T09:35:57.590Z,32.80
2018-06-02T09:38:24.663Z,32.80
2018-06-02T09:40:51.311Z,32.80
2018-06-02T09:46:16.633Z,32.90
2018-06-02T09:48:43.259Z,32.80
2018-06-02T09:51:09.613Z,32.80
2018-06-02T09:53:36.230Z,32.70
2018-06-02T09:56:03.424Z,32.90
2018-06-02T09:58:30.018Z,32.90
2018-06-02T10:00:56.410Z,32.90
2018-06-02T10:03:23.060Z,32.80
2018-06-02T10:05:50.162Z,32.80
2018-06-02T10:08:16.943Z,32.80
2018-06-02T10:10:43.261Z,32.80
2018-06-02T10:13:09.654Z,32.70
2018-06-02T10:15:36.200Z,32.70
2018-06-02T10:18:02.602Z,32.70
2018-06-02T10:20:29.670Z,32.70
2018-06-02T10:22:56.977Z,32.70
2018-06-02T10:25:23.427Z,32.70
2018-06-02T10:27:49.822Z,32.70
2018-06-02T10:30:16.963Z,32.70
2018-06-02T10:32:43.285Z,32.60
2018-06-02T10:35:09.657Z,32.60
2018-06-02T10:37:36.050Z,32.70
2018-06-02T10:40:02.690Z,32.50
2018-06-02T10:42:29.042Z,32.40
2018-06-02T10:44:55.566Z,32.50
2018-06-02T10:47:22.901Z,32.50
2018-06-02T10:49:49.283Z,32.40
2018-06-02T10:52:15.623Z,32.50
2018-06-02T10:54:41.957Z,32.70
2018-06-02T10:57:08.409Z,32.70
2018-06-02T10:59:35.574Z,32.70
2018-06-02T11:02:01.897Z,32.70
2018-06-02T11:04:28.313Z,32.80
2018-06-02T11:06:54.981Z,32.80
2018-06-02T11:09:21.298Z,32.80
2018-06-02T11:11:48.507Z,32.90
2018-06-02T11:14:14.894Z,32.80
2018-06-02T11:16:41.227Z,32.80
2018-06-02T11:19:07.586Z,32.90
2018-06-02T11:21:33.998Z,33.10
2018-06-02T11:24:00.351Z,33.20
2018-06-02T11:26:26.722Z,33.10
2018-06-02T11:28:54.062Z,33.30
2018-06-02T11:31:20.497Z,33.30
2018-06-02T11:33:46.913Z,33.50
2018-06-02T11:36:13.269Z,33.50
2018-06-02T11:38:39.825Z,33.40
2018-06-02T11:41:06.220Z,33.50
2018-06-02T11:43:32.562Z,33.40
2018-06-02T11:45:58.922Z,33.50
2018-06-02T11:48:26.019Z,33.70
2018-06-02T11:50:52.373Z,33.70
2018-06-02T11:53:19.072Z,33.70
2018-06-02T11:55:45.422Z,33.80
2018-06-02T11:58:11.732Z,33.70
2018-06-02T12:00:38.093Z,33.70
2018-06-02T12:03:04.459Z,33.70
2018-06-02T12:05:31.581Z,33.70
2018-06-02T12:07:57.905Z,33.70
2018-06-02T12:10:24.261Z,33.70
2018-06-02T12:12:50.648Z,33.70
2018-06-02T12:15:16.993Z,33.70
2018-06-02T12:17:43.319Z,33.50
2018-06-02T12:20:09.674Z,33.40
2018-06-02T12:22:36.125Z,33.40
2018-06-02T12:25:03.278Z,33.40
2018-06-02T12:27:30.342Z,33.20
2018-06-02T12:29:56.742Z,33.30
2018-06-02T12:32:23.089Z,33.10
2018-06-02T12:34:50.226Z,32.80
2018-06-02T12:37:16.694Z,32.80
2018-06-02T12:39:43.010Z,32.70
2018-06-02T12:42:10.077Z,32.20
2018-06-02T12:44:36.457Z,32.20
2018-06-02T12:47:03.137Z,32.00
2018-06-02T12:49:29.466Z,31.90
2018-06-02T12:51:55.806Z,31.70
2018-06-02T12:54:22.161Z,31.50
2018-06-02T12:56:48.861Z,31.40
2018-06-02T12:59:15.332Z,31.20
2018-06-02T13:01:42.349Z,31.10
2018-06-02T13:04:09.772Z,30.90
2018-06-02T13:06:37.005Z,30.90
2018-06-02T13:09:03.446Z,30.90
2018-06-02T13:11:29.782Z,30.80
2018-06-02T13:13:56.121Z,30.70
2018-06-02T13:16:22.533Z,30.70
2018-06-02T13:18:49.085Z,30.60
2018-06-02T13:21:15.492Z,30.50
2018-06-02T13:23:41.790Z,30.30
2018-06-02T13:26:08.117Z,30.20
2018-06-02T13:28:35.485Z,30.10
2018-06-02T13:31:01.804Z,30.10
2018-06-02T13:33:28.126Z,30.20
2018-06-02T13:35:55.287Z,30.10
2018-06-02T13:38:21.674Z,30.10
2018-06-02T13:40:49.034Z,30.10
2018-06-02T13:43:15.356Z,30.10
2018-06-02T13:45:41.674Z,30.20
2018-06-02T13:48:08.009Z,30.20
2018-06-02T13:50:34.378Z,30.20
2018-06-02T13:53:01.460Z,30.30
2018-06-02T13:55:27.795Z,30.30
2018-06-02T13:57:54.134Z,30.30
2018-06-02T14:00:20.490Z,30.30
2018-06-02T14:02:46.826Z,30.40
2018-06-02T14:05:13.186Z,30.40
2018-06-02T14:07:40.294Z,30.30
2018-06-02T14:10:06.718Z,30.30
2018-06-02T14:12:33.850Z,30.10
2018-06-02T14:15:00.974Z,30.20
2018-06-02T14:17:27.326Z,30.10
2018-06-02T14:19:54.434Z,30.00
2018-06-02T14:22:20.981Z,30.00
2018-06-02T14:24:47.434Z,30.00
2018-06-02T14:27:13.869Z,29.90
2018-06-02T14:29:40.211Z,29.90
2018-06-02T14:32:06.573Z,30.00
2018-06-02T14:34:32.959Z,30.10
2018-06-02T14:36:59.397Z,30.00
2018-06-02T14:39:26.566Z,30.00
2018-06-02T14:41:52.903Z,30.00
2018-06-02T14:44:19.409Z,30.00
2018-06-02T14:46:45.833Z,30.00
2018-06-02T14:49:12.178Z,30.00
2018-06-02T14:51:38.537Z,30.00
2018-06-02T14:54:04.901Z,29.90
2018-06-02T14:56:31.313Z,29.90
2018-06-02T14:58:57.878Z,29.90
2018-06-02T15:01:24.217Z,29.80
2018-06-02T15:03:51.353Z,29.90
2018-06-02T15:06:17.684Z,29.90
2018-06-02T15:08:44.329Z,29.90
2018-06-02T15:11:10.689Z,29.90
2018-06-02T15:13:37.150Z,29.80
2018-06-02T15:16:03.501Z,29.80
2018-06-02T15:18:35.104Z,29.80
2018-06-02T15:21:01.433Z,29.80
2018-06-02T15:23:27.825Z,29.80
2018-06-02T15:25:54.219Z,29.70
2018-06-02T15:28:20.762Z,29.80
2018-06-02T15:30:47.098Z,29.70
2018-06-02T15:33:13.439Z,29.60
2018-06-02T15:35:39.802Z,29.50
2018-06-02T15:38:06.162Z,29.50
2018-06-02T15:40:32.482Z,29.50
2018-06-02T15:42:59.573Z,29.50
2018-06-02T15:45:25.973Z,29.50
2018-06-02T15:47:52.315Z,29.50
2018-06-02T15:50:18.688Z,29.40
2018-06-02T15:52:45.051Z,29.40
2018-06-02T15:55:11.383Z,29.30
2018-06-02T15:57:38.490Z,29.20
2018-06-02T16:00:04.870Z,29.20
2018-06-02T16:02:32.690Z,29.20
2018-06-02T16:04:59.046Z,29.20
2018-06-02T16:07:25.401Z,29.30
2018-06-02T16:09:51.750Z,29.20
2018-06-02T16:12:18.106Z,29.10
2018-06-02T16:14:44.479Z,29.10
2018-06-02T16:17:11.561Z,29.00
2018-06-02T16:19:37.901Z,29.00
2018-06-02T16:22:04.293Z,29.00
2018-06-02T16:24:31.378Z,28.90
2018-06-02T16:26:59.612Z,28.90
2018-06-02T16:29:26.712Z,28.80
2018-06-02T16:31:53.085Z,28.70
2018-06-02T16:34:19.405Z,28.70
2018-06-02T16:36:45.781Z,28.70
2018-06-02T16:39:12.153Z,28.60
2018-06-02T16:41:38.563Z,28.70
2018-06-02T16:44:04.914Z,28.60
2018-06-02T16:46:31.273Z,28.60
2018-06-02T16:48:57.840Z,28.50
2018-06-02T16:51:24.229Z,28.50
2018-06-02T16:53:50.737Z,28.40
2018-06-02T16:56:21.450Z,28.30
2018-06-02T16:58:47.982Z,28.30
2018-06-02T17:01:14.341Z,28.30
2018-06-02T17:03:40.698Z,28.30
2018-06-02T17:06:07.057Z,28.30
2018-06-02T17:08:34.405Z,28.10
2018-06-02T17:11:01.546Z,28.00
2018-06-02T17:13:27.902Z,28.10
2018-06-02T17:15:54.245Z,28.00
2018-06-02T17:18:21.992Z,27.90
2018-06-02T17:20:49.130Z,27.80
2018-06-02T17:23:16.202Z,27.80
2018-06-02T17:25:42.555Z,27.80
2018-06-02T17:28:09.169Z,27.70
2018-06-02T17:30:35.502Z,27.60
2018-06-02T17:33:01.841Z,27.50
2018-06-02T17:35:28.229Z,27.50
2018-06-02T17:37:54.729Z,27.40
2018-06-02T17:40:21.076Z,27.40
2018-06-02T17:42:47.410Z,27.30
2018-06-02T17:45:13.769Z,27.10
2018-06-02T17:47:41.109Z,27.20
2018-06-02T17:50:07.522Z,27.20
2018-06-02T17:52:33.878Z,27.20
2018-06-02T17:55:00.213Z,27.20
2018-06-02T17:57:26.542Z,27.10
2018-06-02T17:59:52.890Z,27.10
2018-06-02T18:02:19.946Z,27.00
2018-06-02T18:04:46.313Z,27.00
2018-06-02T18:07:12.653Z,26.90
2018-06-02T18:09:38.994Z,26.90
2018-06-02T18:12:05.337Z,26.80
2018-06-02T18:14:31.697Z,26.70
2018-06-02T18:16:58.797Z,26.60
2018-06-02T18:19:25.174Z,26.60
2018-06-02T18:21:52.368Z,26.50
2018-06-02T18:24:18.738Z,26.50
2018-06-02T18:26:45.127Z,26.50
2018-06-02T18:29:11.459Z,26.40
2018-06-02T18:31:37.826Z,26.30
2018-06-02T18:34:04.182Z,26.30
2018-06-02T18:36:30.533Z,26.20
2018-06-02T18:38:57.800Z,26.10
2018-06-02T18:41:24.317Z,26.10
2018-06-02T18:43:50.670Z,26.00
2018-06-02T18:46:17.002Z,26.00
2018-06-02T18:48:43.606Z,25.90
2018-06-02T18:51:10.686Z,25.80
2018-06-02T18:53:37.171Z,25.80
2018-06-02T18:56:04.310Z,25.70
2018-06-02T18:58:31.090Z,25.60
2018-06-02T19:00:58.322Z,25.60
2018-06-02T19:03:24.662Z,25.50
2018-06-02T19:05:51.062Z,25.40
2018-06-02T19:08:17.701Z,25.40
2018-06-02T19:10:44.050Z,25.30
2018-06-02T19:13:11.155Z,25.20
2018-06-02T19:15:37.549Z,25.10
2018-06-02T19:18:04.769Z,25.00
2018-06-02T19:20:31.113Z,25.00
2018-06-02T19:22:58.270Z,24.90
2018-06-02T19:25:25.369Z,24.80
2018-06-02T19:27:51.953Z,24.80
2018-06-02T19:30:18.301Z,24.70
2018-06-02T19:32:45.373Z,24.60
2018-06-02T19:35:12.450Z,24.50
2018-06-02T19:37:38.930Z,24.40
2018-06-02T19:40:05.257Z,24.40
2018-06-02T19:43:02.404Z,24.30
2018-06-02T19:45:30.149Z,24.20
2018-06-02T19:47:58.098Z,24.10
2018-06-02T19:50:25.975Z,24.10
2018-06-02T19:52:53.986Z,24.00
2018-06-02T19:55:21.821Z,23.80
2018-06-02T19:57:49.830Z,23.70
2018-06-02T20:00:17.629Z,23.60
2018-06-02T20:02:45.425Z,23.50
2018-06-02T20:05:13.240Z,23.40
2018-06-02T20:07:42.740Z,23.30
2018-06-02T20:10:10.669Z,23.20
2018-06-02T20:12:39.047Z,23.20
2018-06-02T20:15:06.830Z,23.10
2018-06-02T20:17:34.661Z,23.00
2018-06-02T20:20:02.469Z,22.90
2018-06-02T20:22:30.260Z,22.80
2018-06-02T20:24:57.998Z,22.80
2018-06-02T20:27:30.978Z,22.80
2018-06-02T20:32:26.509Z,22.60
2018-06-02T20:37:22.122Z,22.30
2018-06-02T20:39:49.917Z,22.40
2018-06-02T20:42:17.654Z,22.40
2018-06-02T20:44:45.410Z,22.40
2018-06-02T20:47:13.193Z,22.40
2018-06-02T20:49:40.933Z,22.30
2018-06-02T20:52:08.661Z,22.30
2018-06-02T20:54:36.437Z,22.30
2018-06-02T20:57:04.213Z,22.20
2018-06-02T20:59:31.966Z,22.10
2018-06-02T21:01:59.740Z,22.10
2018-06-02T21:04:27.503Z,22.10
2018-06-02T21:06:55.313Z,22.20
2018-06-02T21:09:23.179Z,22.20
2018-06-02T21:11:50.926Z,22.30
2018-06-02T21:14:18.710Z,22.20
2018-06-02T21:16:46.523Z,22.00
2018-06-02T21:19:14.365Z,21.90
2018-06-02T21:21:42.137Z,21.80
2018-06-02T21:24:09.878Z,21.80
2018-06-02T21:26:38.241Z,21.80
2018-06-02T21:31:39.104Z,21.80
2018-06-02T21:34:06.849Z,21.80
2018-06-02T21:36:34.625Z,21.70
2018-06-02T21:39:12.097Z,21.70
2018-06-02T21:44:07.558Z,21.50
2018-06-02T21:46:35.367Z,21.40
2018-06-02T21:49:03.185Z,21.30
2018-06-02T21:51:30.946Z,21.30
2018-06-02T21:56:26.473Z,21.10
2018-06-02T22:01:37.136Z,21.00
2018-06-02T22:04:05.018Z,20.90
2018-06-02T22:06:33.077Z,20.90
2018-06-02T22:09:01.115Z,20.90
2018-06-02T22:11:29.151Z,20.90
2018-06-02T22:13:57.061Z,20.90
2018-06-02T22:16:25.234Z,20.80
2018-06-02T22:18:53.372Z,20.80
2018-06-02T22:21:21.141Z,20.70
2018-06-02T22:23:49.065Z,20.70
2018-06-02T22:26:16.954Z,20.70
2018-06-02T22:28:44.737Z,20.70
2018-06-02T22:31:12.505Z,20.60
2018-06-02T22:33:40.337Z,20.60
2018-06-02T22:36:08.191Z,20.60
2018-06-02T22:38:36.634Z,20.60
2018-06-02T22:41:04.428Z,20.70
2018-06-02T22:43:32.384Z,20.70
2018-06-02T22:46:00.193Z,20.70
2018-06-02T22:48:28.005Z,20.80
2018-06-02T22:50:55.870Z,20.70
2018-06-02T22:53:24.036Z,21.00
2018-06-02T22:55:51.946Z,21.00
2018-06-02T22:58:19.862Z,20.80
2018-06-02T23:00:47.795Z,20.70
2018-06-02T23:03:15.838Z,20.70
2018-06-02T23:05:43.801Z,20.80
2018-06-02T23:08:12.146Z,20.80
2018-06-02T23:10:39.902Z,20.90
2018-06-02T23:13:07.765Z,20.80
2018-06-02T23:15:35.572Z,20.80
2018-06-02T23:18:04.814Z,20.80
2018-06-02T23:20:32.658Z,20.70
2018-06-02T23:23:00.901Z,20.70
2018-06-02T23:25:28.717Z,20.60
2018-06-02T23:27:56.891Z,20.50
2018-06-02T23:30:24.807Z,20.40
2018-06-02T23:32:52.591Z,20.40
2018-06-02T23:35:20.365Z,20.40
2018-06-02T23:37:48.462Z,20.40
2018-06-02T23:40:19.018Z,20.40
2018-06-02T23:42:46.822Z,20.30
2018-06-02T23:45:14.615Z,20.40
2018-06-02T23:47:42.599Z,20.30
2018-06-02T23:50:10.364Z,20.30
2018-06-02T23:52:38.169Z,20.30
2018-06-02T23:55:05.917Z,20.20
2018-06-02T23:57:33.698Z,20.20
